Time;durP1;ratioP1;P1;durP2;ratioP2;P2;SDS_P1;SDS_P2;PMS_P1;PMS_P2;Temp;Humidity;BMP_temperature;BMP_pressure;BME280_temperature;BME280_humidity;BME280_pressure;Samples;Min_cycle;Max_cycle;Signal;HPM_P1;HPM_P2
2024/02/06 00:00:18;;;;;;;11.88;4.68;;;;;;;6.33;100.00;98336.78;6107458;19;19994;-71
2024/02/06 00:02:18;;;;;;;14.30;4.80;;;;;;;6.24;100.00;98321.63;6108234;19;20087;-71
2024/02/06 00:04:18;;;;;;;12.32;4.72;;;;;;;6.26;100.00;98320.13;6107210;19;20026;-71
2024/02/06 00:06:18;;;;;;;11.65;5.18;;;;;;;6.27;100.00;98320.91;6108701;19;19999;-71
2024/02/06 00:08:19;;;;;;;8.48;5.07;;;;;;;6.25;100.00;98318.53;6107163;19;20013;-71
2024/02/06 00:10:19;;;;;;;12.20;5.10;;;;;;;6.19;100.00;98322.66;6108188;19;20014;-71
2024/02/06 00:12:19;;;;;;;13.82;4.90;;;;;;;6.20;100.00;98311.31;6107428;19;19998;-72
2024/02/06 00:14:20;;;;;;;10.13;5.07;;;;;;;6.18;100.00;98301.84;6108204;19;20034;-71
2024/02/06 00:16:20;;;;;;;10.93;5.45;;;;;;;6.23;100.00;98306.28;6108239;19;23428;-71
2024/02/06 00:18:21;;;;;;;12.07;5.90;;;;;;;6.28;100.00;98306.81;6106884;19;20386;-71
2024/02/06 00:20:22;;;;;;;10.80;5.10;;;;;;;6.26;100.00;98298.13;6107906;19;20329;-71
2024/02/06 00:22:22;;;;;;;12.13;4.63;;;;;;;6.25;100.00;98301.25;6106448;19;19999;-71
2024/02/06 00:24:22;;;;;;;13.32;5.45;;;;;;;6.21;100.00;98292.91;6107840;19;20081;-71
2024/02/06 00:26:23;;;;;;;12.57;5.05;;;;;;;6.26;100.00;98300.88;6108597;19;20231;-71
2024/02/06 00:28:24;;;;;;;13.38;5.40;;;;;;;6.24;100.00;98296.91;6105891;19;20002;-71
2024/02/06 00:30:25;;;;;;;11.77;5.10;;;;;;;6.23;100.00;98298.06;6107964;19;20111;-71
2024/02/06 00:32:25;;;;;;;11.30;5.10;;;;;;;6.18;100.00;98290.84;6107604;19;20030;-71
2024/02/06 00:34:26;;;;;;;14.20;4.85;;;;;;;6.17;100.00;98292.81;6106738;19;20489;-71
2024/02/06 00:36:26;;;;;;;16.27;5.85;;;;;;;6.14;100.00;98285.28;6107504;19;20056;-71
2024/02/06 00:38:26;;;;;;;15.75;5.50;;;;;;;6.23;100.00;98293.34;6106303;19;20018;-71
2024/02/06 00:40:26;;;;;;;13.98;5.03;;;;;;;6.23;100.00;98303.56;6107677;19;20007;-71
2024/02/06 00:42:27;;;;;;;14.45;5.03;;;;;;;6.18;100.00;98296.34;6107143;19;20356;-71
2024/02/06 00:44:27;;;;;;;10.45;4.95;;;;;;;6.21;100.00;98287.44;6107702;19;20021;-71
2024/02/06 00:46:28;;;;;;;11.00;5.63;;;;;;;6.24;100.00;98294.94;6107667;19;20268;-71
2024/02/06 00:48:28;;;;;;;14.32;5.30;;;;;;;6.20;100.00;98296.78;6099643;19;20039;-71
2024/02/06 00:50:28;;;;;;;14.05;5.43;;;;;;;6.16;100.00;98293.16;6100549;19;20006;-71
2024/02/06 00:52:29;;;;;;;14.23;5.15;;;;;;;6.13;100.00;98289.19;6100694;19;20021;-71
2024/02/06 00:54:29;;;;;;;13.63;5.20;;;;;;;6.15;100.00;98292.38;6101159;19;20007;-71
2024/02/06 00:56:29;;;;;;;15.20;6.00;;;;;;;6.20;100.00;98288.56;6100788;19;20034;-71
2024/02/06 00:58:29;;;;;;;12.55;5.30;;;;;;;6.22;100.00;98297.25;6099344;19;20465;-71
2024/02/06 01:00:30;;;;;;;13.65;5.07;;;;;;;6.24;100.00;98303.19;6098971;19;20018;-71
2024/02/06 01:02:30;;;;;;;12.80;5.78;;;;;;;6.25;100.00;98296.53;6100566;19;20010;-71
2024/02/06 01:04:30;;;;;;;14.27;5.75;;;;;;;6.25;100.00;98288.31;6101293;19;20034;-71
2024/02/06 01:06:31;;;;;;;9.30;5.03;;;;;;;6.27;100.00;98290.69;6106396;19;20010;-71
2024/02/06 01:08:31;;;;;;;12.77;5.03;;;;;;;6.20;100.00;98288.56;6105790;19;20006;-71
2024/02/06 01:10:31;;;;;;;13.65;6.13;;;;;;;6.24;100.00;98291.41;6105067;19;20487;-71
2024/02/06 01:12:32;;;;;;;15.57;5.05;;;;;;;6.20;100.00;98292.09;6106755;19;20023;-71
2024/02/06 01:14:32;;;;;;;13.43;6.10;;;;;;;6.22;100.00;98282.72;6105241;19;20008;-71
2024/02/06 01:16:32;;;;;;;14.13;5.07;;;;;;;6.23;100.00;98290.59;6106390;19;20011;-71
2024/02/06 01:18:33;;;;;;;14.90;5.85;;;;;;;6.19;100.00;98292.44;6105355;19;20007;-71
2024/02/06 01:20:33;;;;;;;14.48;5.65;;;;;;;6.19;100.00;98287.75;6106126;19;20013;-71
2024/02/06 01:22:34;;;;;;;11.32;4.82;;;;;;;6.21;100.00;98284.69;6106199;19;20311;-72
2024/02/06 01:24:34;;;;;;;17.83;5.30;;;;;;;6.24;100.00;98283.16;6106459;19;20014;-71
2024/02/06 01:26:34;;;;;;;17.10;6.32;;;;;;;6.24;100.00;98272.16;6105117;19;20017;-71
2024/02/06 01:28:35;;;;;;;16.77;5.20;;;;;;;6.28;100.00;98273.84;6106091;19;20014;-71
2024/02/06 01:30:35;;;;;;;14.15;6.07;;;;;;;6.25;100.00;98279.25;6106000;19;20011;-71
2024/02/06 01:32:35;;;;;;;13.80;5.40;;;;;;;6.21;100.00;98265.44;6106346;19;20006;-71
2024/02/06 01:34:35;;;;;;;13.20;5.13;;;;;;;6.22;100.00;98256.06;6104991;19;20134;-71
2024/02/06 01:36:36;;;;;;;9.55;4.88;;;;;;;6.22;100.00;98252.50;6104933;19;20002;-72
2024/02/06 01:38:36;;;;;;;13.85;4.85;;;;;;;6.17;100.00;98261.81;6105763;19;20346;-72
2024/02/06 01:40:41;;;;;;;12.98;5.40;;;;;;;6.24;100.00;98272.16;6105497;19;20450;-72
2024/02/06 01:42:41;;;;;;;10.93;5.32;;;;;;;6.22;100.00;98264.28;6104770;19;20003;-71
2024/02/06 01:44:42;;;;;;;12.25;5.35;;;;;;;6.25;100.00;98258.06;6104758;19;20308;-71
2024/02/06 01:46:42;;;;;;;14.60;4.43;;;;;;;6.21;100.00;98251.72;6103716;19;20418;-71
2024/02/06 01:48:43;;;;;;;15.70;4.30;;;;;;;6.25;100.00;98249.03;6111363;19;20015;-71
2024/02/06 01:50:43;;;;;;;11.32;4.25;;;;;;;6.29;100.00;98253.47;6111276;19;20014;-71
2024/02/06 01:52:44;;;;;;;14.23;4.68;;;;;;;6.25;100.00;98249.03;6112362;19;20014;-71
2024/02/06 01:54:44;;;;;;;8.95;3.67;;;;;;;6.32;100.00;98254.72;6112400;19;20082;-71
2024/02/06 01:56:45;;;;;;;9.73;4.38;;;;;;;6.31;100.00;98251.16;6110853;19;20017;-71
2024/02/06 01:58:45;;;;;;;12.43;4.13;;;;;;;6.39;100.00;98246.66;6112045;19;20010;-71
2024/02/06 02:00:46;;;;;;;10.80;3.90;;;;;;;6.42;100.00;98241.22;6112293;19;20111;-71
2024/02/06 02:02:48;;;;;;;9.48;4.45;;;;;;;6.45;100.00;98245.19;6112242;19;20419;-71
2024/02/06 02:04:48;;;;;;;11.88;4.05;;;;;;;6.44;100.00;98249.91;6110957;19;20034;-71
2024/02/06 02:06:49;;;;;;;7.93;4.97;;;;;;;6.40;100.00;98240.00;6110903;19;20015;-71
2024/02/06 02:08:51;;;;;;;9.20;3.95;;;;;;;6.37;100.00;98251.69;6112117;19;20006;-71
2024/02/06 02:10:51;;;;;;;5.95;3.22;;;;;;;6.39;100.00;98254.91;6111480;19;20078;-71
2024/02/06 02:12:52;;;;;;;12.52;3.85;;;;;;;6.44;100.00;98243.59;6111480;19;20019;-71
2024/02/06 02:14:52;;;;;;;11.07;4.32;;;;;;;6.46;100.00;98239.38;6112139;19;20343;-71
2024/02/06 02:16:52;;;;;;;8.38;3.47;;;;;;;6.45;100.00;98239.72;6107745;19;20022;-71
2024/02/06 02:18:56;;;;;;;7.00;3.00;;;;;;;6.46;100.00;98228.38;6110156;19;20467;-71
2024/02/06 02:20:56;;;;;;;10.60;4.03;;;;;;;6.42;100.00;98230.22;6111423;19;20002;-71
2024/02/06 02:22:56;;;;;;;12.23;3.10;;;;;;;6.42;100.00;98230.22;6112708;19;20030;-71
2024/02/06 02:24:58;;;;;;;12.02;3.50;;;;;;;6.38;100.00;98237.59;6111434;19;20002;-71
2024/02/06 02:26:59;;;;;;;9.52;3.92;;;;;;;6.43;100.00;98226.31;6110195;19;20012;-71
2024/02/06 02:28:59;;;;;;;5.00;2.67;;;;;;;6.50;100.00;98231.19;6111623;19;20009;-71
2024/02/06 02:31:01;;;;;;;8.55;3.10;;;;;;;6.51;100.00;98230.03;6111599;19;20030;-71
2024/02/06 02:33:01;;;;;;;8.02;3.50;;;;;;;6.44;100.00;98218.88;6110399;19;20062;-71
2024/02/06 02:35:02;;;;;;;10.82;3.00;;;;;;;6.50;100.00;98227.66;6110397;19;20376;-71
2024/02/06 02:37:02;;;;;;;9.90;3.35;;;;;;;6.54;100.00;98223.84;6108325;19;20544;-71
2024/02/06 02:39:03;;;;;;;6.97;3.38;;;;;;;6.50;100.00;98222.94;6110221;19;20018;-71
2024/02/06 02:41:04;;;;;;;7.95;3.35;;;;;;;6.52;100.00;98231.63;6110120;19;20015;-71
2024/02/06 02:43:05;;;;;;;4.43;2.50;;;;;;;6.55;100.00;98224.66;6111849;19;20461;-71
2024/02/06 02:45:06;;;;;;;10.38;3.05;;;;;;;6.53;100.00;98221.44;6110026;19;20080;-71
2024/02/06 02:47:06;;;;;;;5.50;2.72;;;;;;;6.54;100.00;98210.09;6109604;19;20005;-71
2024/02/06 02:49:07;;;;;;;6.03;2.78;;;;;;;6.52;100.00;98214.34;6109741;19;20003;-71
2024/02/06 02:51:07;;;;;;;6.78;3.05;;;;;;;6.41;100.00;98225.09;6110618;19;20089;-71
2024/02/06 02:53:07;;;;;;;8.98;3.75;;;;;;;6.38;100.00;98204.63;6110625;19;20078;-71
2024/02/06 02:55:08;;;;;;;6.68;2.92;;;;;;;6.37;100.00;98216.78;6110696;19;20356;-71
2024/02/06 02:57:08;;;;;;;9.15;3.00;;;;;;;6.39;100.00;98208.19;6110101;19;20810;-71
2024/02/06 02:59:08;;;;;;;11.90;3.58;;;;;;;6.44;100.00;98210.63;6110942;19;20015;-71
2024/02/06 03:01:09;;;;;;;5.10;2.88;;;;;;;6.43;100.00;98220.03;6109703;19;20002;-71
2024/02/06 03:03:09;;;;;;;4.82;2.38;;;;;;;6.46;100.00;98208.34;6110954;19;20020;-71
2024/02/06 03:05:09;;;;;;;7.13;2.95;;;;;;;6.45;100.00;98209.47;6110295;19;20002;-71
2024/02/06 03:07:10;;;;;;;6.78;2.78;;;;;;;6.50;100.00;98209.22;6109996;19;20091;-71
2024/02/06 03:09:11;;;;;;;5.07;2.80;;;;;;;6.46;100.00;98189.09;6109445;19;20392;-71
2024/02/06 03:11:12;;;;;;;9.27;2.53;;;;;;;6.48;100.00;98198.56;6110769;19;20003;-71
2024/02/06 03:13:12;;;;;;;5.55;3.03;;;;;;;6.41;100.00;98200.38;6109881;19;20003;-71
2024/02/06 03:15:13;;;;;;;9.52;2.88;;;;;;;6.47;100.00;98193.44;6109958;19;20069;-71
2024/02/06 03:17:13;;;;;;;8.25;3.30;;;;;;;6.42;100.00;98186.25;6108211;19;20406;-71
2024/02/06 03:19:13;;;;;;;7.70;3.30;;;;;;;6.40;100.00;98187.78;6109757;19;20081;-71
2024/02/06 03:21:13;;;;;;;6.43;2.38;;;;;;;6.42;100.00;98177.22;6109796;19;20086;-71
2024/02/06 03:23:14;;;;;;;7.05;2.88;;;;;;;6.39;100.00;98183.44;6110437;19;20578;-71
2024/02/06 03:25:15;;;;;;;6.90;3.20;;;;;;;6.43;100.00;98189.81;6109420;19;20010;-71
2024/02/06 03:27:16;;;;;;;6.03;3.08;;;;;;;6.40;100.00;98183.09;6108250;19;20066;-71
2024/02/06 03:29:16;;;;;;;10.52;3.55;;;;;;;6.37;100.00;98180.22;6109588;19;20474;-71
2024/02/06 03:31:17;;;;;;;10.23;3.10;;;;;;;6.33;100.00;98171.13;6110365;19;20003;-71
2024/02/06 03:33:17;;;;;;;6.85;3.42;;;;;;;6.29;100.00;98179.31;6109733;19;20003;-71
2024/02/06 03:35:17;;;;;;;9.00;2.88;;;;;;;6.33;100.00;98182.13;6107500;19;19998;-71
2024/02/06 03:37:18;;;;;;;7.03;2.95;;;;;;;6.29;100.00;98178.47;6109406;19;20002;-71
2024/02/06 03:39:18;;;;;;;7.70;3.05;;;;;;;6.36;100.00;98175.91;6109912;19;20475;-71
2024/02/06 03:41:19;;;;;;;6.82;2.85;;;;;;;6.31;100.00;98171.50;6110307;19;20003;-71
2024/02/06 03:43:19;;;;;;;7.90;2.60;;;;;;;6.33;100.00;98171.91;6110061;19;20042;-71
2024/02/06 03:45:19;;;;;;;6.22;2.78;;;;;;;6.33;100.00;98173.88;6108117;19;20026;-71
2024/02/06 03:47:20;;;;;;;6.80;2.80;;;;;;;6.33;100.00;98174.66;6108562;19;20013;-71
2024/02/06 03:49:20;;;;;;;6.05;2.95;;;;;;;6.28;100.00;98169.44;6109474;19;20046;-71
2024/02/06 03:51:20;;;;;;;7.03;3.42;;;;;;;6.27;100.00;98167.84;6110475;19;20395;-71
2024/02/06 03:53:20;;;;;;;7.68;2.90;;;;;;;6.27;100.00;98156.84;6110309;19;20006;-71
2024/02/06 03:55:21;;;;;;;5.20;2.58;;;;;;;6.33;100.00;98160.13;6109379;19;20010;-71
2024/02/06 03:57:21;;;;;;;8.77;2.95;;;;;;;6.41;100.00;98164.63;6108408;19;20324;-71
2024/02/06 03:59:21;;;;;;;6.97;3.10;;;;;;;6.41;100.00;98172.88;6107866;19;20103;-71
2024/02/06 04:01:22;;;;;;;5.75;2.72;;;;;;;6.38;100.00;98160.66;6109432;19;20034;-71
2024/02/06 04:03:22;;;;;;;4.82;2.65;;;;;;;6.38;100.00;98168.13;6108473;19;20014;-71
2024/02/06 04:05:24;;;;;;;5.70;2.78;;;;;;;6.41;100.00;98173.69;6109181;19;20013;-71
2024/02/06 04:07:24;;;;;;;7.10;2.63;;;;;;;6.42;100.00;98174.47;6107957;19;20929;-71
2024/02/06 04:09:24;;;;;;;6.90;2.95;;;;;;;6.40;100.00;98152.06;6108622;19;20509;-71
2024/02/06 04:11:25;;;;;;;5.70;2.78;;;;;;;6.44;100.00;98167.47;6109214;19;20006;-71
2024/02/06 04:13:25;;;;;;;5.85;3.08;;;;;;;6.40;100.00;98157.56;6109105;19;20485;-71
2024/02/06 04:15:25;;;;;;;7.00;2.70;;;;;;;6.38;100.00;98168.91;6108550;19;20003;-72
2024/02/06 04:17:26;;;;;;;7.15;3.30;;;;;;;6.44;100.00;98159.22;6109864;19;20465;-71
2024/02/06 04:19:26;;;;;;;7.30;3.22;;;;;;;6.44;100.00;98161.97;6108462;19;20010;-71
2024/02/06 04:21:27;;;;;;;7.60;3.00;;;;;;;6.49;100.00;98160.91;6109238;19;20458;-72
2024/02/06 04:23:27;;;;;;;7.03;3.35;;;;;;;6.46;100.00;98165.16;6109715;19;20013;-71
2024/02/06 04:25:27;;;;;;;7.55;3.42;;;;;;;6.42;100.00;98147.00;6109906;19;20356;-71
2024/02/06 04:27:28;;;;;;;4.72;2.45;;;;;;;6.43;100.00;98159.56;6107839;19;20013;-71
2024/02/06 04:29:29;;;;;;;6.68;2.70;;;;;;;6.48;100.00;98167.56;6106385;19;20018;-71
2024/02/06 04:31:29;;;;;;;8.77;3.13;;;;;;;6.48;100.00;98149.13;6107045;19;20056;-71
2024/02/06 04:33:29;;;;;;;8.18;2.70;;;;;;;6.47;100.00;98153.03;6108874;19;20016;-71
2024/02/06 04:35:29;;;;;;;6.35;2.97;;;;;;;6.47;100.00;98147.53;6108014;19;20022;-71
2024/02/06 04:37:30;;;;;;;8.77;2.90;;;;;;;6.46;100.00;98150.63;6108402;19;20040;-71
2024/02/06 04:39:30;;;;;;;5.22;2.10;;;;;;;6.45;100.00;98140.78;6106191;19;20455;-71
2024/02/06 04:41:31;;;;;;;11.15;2.97;;;;;;;6.51;100.00;98157.78;6108207;19;20018;-71
2024/02/06 04:43:31;;;;;;;5.60;2.70;;;;;;;6.53;100.00;98153.50;6107586;19;20070;-71
2024/02/06 04:45:33;;;;;;;6.40;2.63;;;;;;;6.55;100.00;98145.72;6108535;19;20003;-71
2024/02/06 04:47:33;;;;;;;6.00;3.50;;;;;;;6.58;100.00;98133.22;6099175;19;20006;-71
2024/02/06 04:49:33;;;;;;;5.30;2.33;;;;;;;6.55;100.00;98129.22;6108278;19;20137;-71
2024/02/06 04:51:36;;;;;;;6.00;2.60;;;;;;;6.53;100.00;98130.72;6106518;19;20062;-71
2024/02/06 04:53:36;;;;;;;6.00;2.70;;;;;;;6.54;100.00;98119.41;6108022;19;20007;-71
2024/02/06 04:55:37;;;;;;;5.05;2.42;;;;;;;6.50;100.00;98131.47;6107421;19;20022;-71
2024/02/06 04:57:38;;;;;;;5.50;2.47;;;;;;;6.53;100.00;98133.47;6106651;19;20007;-71
2024/02/06 04:59:38;;;;;;;4.28;2.17;;;;;;;6.53;100.00;98120.53;6107446;19;20498;-71
2024/02/06 05:01:39;;;;;;;4.78;2.60;;;;;;;6.55;100.00;98106.44;6107127;19;20011;-71
2024/02/06 05:03:39;;;;;;;7.50;2.55;;;;;;;6.61;100.00;98113.22;6108049;19;20060;-71
2024/02/06 05:05:40;;;;;;;6.75;2.67;;;;;;;6.61;100.00;98103.03;6105581;19;20003;-71
2024/02/06 05:07:41;;;;;;;4.88;2.22;;;;;;;6.58;100.00;98108.47;6105975;19;20010;-71
2024/02/06 05:09:41;;;;;;;6.95;2.67;;;;;;;6.64;100.00;98107.03;6106806;19;20568;-71
2024/02/06 05:11:41;;;;;;;5.65;2.60;;;;;;;6.57;100.00;98096.69;6107832;19;20054;-71
2024/02/06 05:13:44;;;;;;;4.55;2.67;;;;;;;6.52;100.00;98088.72;6105920;19;20010;-71
2024/02/06 05:15:44;;;;;;;;;;;;;;;6.51;100.00;98106.34;6105810;19;20077;-71
2024/02/06 05:17:45;;;;;;;5.88;2.20;;;;;;;6.57;100.00;98096.69;6105761;19;19914;-71
2024/02/06 05:19:46;;;;;;;5.55;1.88;;;;;;;6.61;100.00;98103.03;6106900;19;20002;-71
2024/02/06 05:21:46;;;;;;;8.43;2.60;;;;;;;6.56;100.00;98095.09;6106778;19;20009;-71
2024/02/06 05:23:47;;;;;;;4.82;2.20;;;;;;;6.56;100.00;98086.84;6106524;19;20002;-71
2024/02/06 05:25:47;;;;;;;6.15;2.35;;;;;;;6.57;100.00;98088.44;6106898;19;20011;-71
2024/02/06 05:27:47;;;;;;;4.18;2.15;;;;;;;6.58;100.00;98086.47;6104921;19;20019;-71
2024/02/06 05:29:48;;;;;;;4.22;2.05;;;;;;;6.66;100.00;98085.47;6105323;19;20141;-71
2024/02/06 05:31:48;;;;;;;5.05;2.13;;;;;;;6.60;100.00;98098.69;6106949;19;20007;-71
2024/02/06 05:33:49;;;;;;;5.93;2.28;;;;;;;6.65;100.00;98073.69;6106567;19;20512;-71
2024/02/06 05:35:49;;;;;;;3.95;1.83;;;;;;;6.70;100.00;98080.81;6106402;19;20006;-71
2024/02/06 05:37:49;;;;;;;5.78;2.42;;;;;;;6.69;100.00;98074.53;6105642;19;20038;-71
2024/02/06 05:39:50;;;;;;;6.07;2.03;;;;;;;6.70;100.00;98075.31;6105591;19;19999;-71
2024/02/06 05:41:50;;;;;;;4.55;2.60;;;;;;;6.72;100.00;98073.03;6105043;19;20512;-71
2024/02/06 05:43:50;;;;;;;5.70;2.50;;;;;;;6.76;100.00;98060.94;6106774;19;19999;-71
2024/02/06 05:45:51;;;;;;;4.65;2.40;;;;;;;6.67;100.00;98063.09;6105410;19;20007;-71
2024/02/06 05:47:53;;;;;;;5.25;1.85;;;;;;;6.71;100.00;98066.75;6100085;19;20006;-71
2024/02/06 05:49:53;;;;;;;5.10;2.13;;;;;;;6.66;100.00;98082.72;6098952;19;19999;-71
2024/02/06 05:51:53;;;;;;;5.00;2.20;;;;;;;6.70;100.00;98062.41;6103891;19;20183;-71
2024/02/06 05:53:53;;;;;;;4.80;1.75;;;;;;;6.68;100.00;98078.44;6105324;19;20029;-71
2024/02/06 05:55:54;;;;;;;3.25;2.10;;;;;;;6.72;100.00;98059.28;6103549;19;20348;-71
2024/02/06 05:57:54;;;;;;;4.63;1.98;;;;;;;6.71;100.00;98068.69;6103912;19;20003;-71
2024/02/06 05:59:55;;;;;;;5.50;2.10;;;;;;;6.70;100.00;98067.91;6103904;19;19999;-71
2024/02/06 06:01:55;;;;;;;4.47;1.73;;;;;;;6.68;100.00;98081.19;6105349;19;20013;-71
2024/02/06 06:03:57;;;;;;;5.03;2.65;;;;;;;6.65;100.00;98076.44;6105385;19;19998;-71
2024/02/06 06:05:57;;;;;;;4.05;2.17;;;;;;;6.68;100.00;98083.16;6105508;19;20074;-71
2024/02/06 06:07:58;;;;;;;4.95;2.05;;;;;;;6.63;100.00;98069.72;6103870;19;20006;-71
2024/02/06 06:09:58;;;;;;;4.60;1.95;;;;;;;6.61;100.00;98067.28;6104298;19;20011;-71
2024/02/06 06:11:58;;;;;;;6.30;2.40;;;;;;;6.60;100.00;98087.69;6105415;19;20015;-71
2024/02/06 06:13:59;;;;;;;8.43;2.90;;;;;;;6.62;100.00;98087.34;6105433;19;20019;-71
2024/02/06 06:15:59;;;;;;;8.90;2.40;;;;;;;6.73;100.00;98085.63;6102012;19;20010;-72
2024/02/06 06:18:00;;;;;;;6.53;2.70;;;;;;;6.73;100.00;98082.88;6103046;19;20010;-72
2024/02/06 06:20:00;;;;;;;4.72;2.05;;;;;;;6.72;100.00;98082.06;6103694;19;20007;-71
2024/02/06 06:22:06;;;;;;;4.90;2.33;;;;;;;6.75;100.00;98097.03;6104383;19;20493;-71
2024/02/06 06:24:07;;;;;;;5.15;2.22;;;;;;;6.67;100.00;98079.59;6104291;19;20013;-71
2024/02/06 06:26:07;;;;;;;4.05;2.03;;;;;;;6.68;100.00;98088.66;6099121;19;20066;-71
2024/02/06 06:28:08;;;;;;;5.53;2.20;;;;;;;6.66;100.00;98080.78;6103073;19;20009;-72
2024/02/06 06:30:10;;;;;;;6.20;2.25;;;;;;;6.64;100.00;98088.59;6100690;19;21331;-71
2024/02/06 06:32:10;;;;;;;4.47;2.53;;;;;;;6.61;100.00;98078.28;6103764;19;20003;-71
2024/02/06 06:34:11;;;;;;;5.05;2.60;;;;;;;6.65;100.00;98094.88;6104270;19;19994;-71
2024/02/06 06:36:11;;;;;;;5.28;2.10;;;;;;;6.75;100.00;98084.09;6103463;19;20033;-71
2024/02/06 06:38:11;;;;;;;4.90;1.88;;;;;;;6.78;100.00;98087.25;6103007;19;19998;-71
2024/02/06 06:40:12;;;;;;;8.20;1.90;;;;;;;6.76;100.00;98071.94;6103262;19;19999;-71
2024/02/06 06:42:12;;;;;;;6.47;2.10;;;;;;;6.79;100.00;98073.19;6104100;19;19998;-71
2024/02/06 06:44:13;;;;;;;5.68;2.10;;;;;;;6.78;100.00;98079.03;6104003;19;20006;-71
2024/02/06 06:46:13;;;;;;;4.47;1.90;;;;;;;6.75;100.00;98070.34;6104406;19;20037;-71
2024/02/06 06:48:13;;;;;;;5.32;2.10;;;;;;;6.79;100.00;98069.63;6107458;19;20007;-71
2024/02/06 06:50:14;;;;;;;4.18;1.70;;;;;;;6.78;100.00;98079.03;6110976;19;20058;-71
2024/02/06 06:52:14;;;;;;;6.93;2.25;;;;;;;6.80;100.00;98080.28;6111202;19;20015;-71
2024/02/06 06:54:14;;;;;;;4.68;1.92;;;;;;;6.75;100.00;98062.09;6111036;19;20227;-71
2024/02/06 06:56:16;;;;;;;5.60;2.90;;;;;;;6.74;100.00;98081.72;6109179;19;19995;-71
2024/02/06 06:58:16;;;;;;;7.60;2.90;;;;;;;6.73;100.00;98066.38;6110076;19;20511;-71
2024/02/06 07:00:17;;;;;;;4.03;2.08;;;;;;;6.80;100.00;98080.28;6110999;19;19998;-71
2024/02/06 07:02:18;;;;;;;4.47;1.95;;;;;;;6.83;100.00;98068.53;6109125;19;20598;-71
2024/02/06 07:04:18;;;;;;;5.70;2.58;;;;;;;6.79;100.00;98073.19;6110839;19;20030;-71
2024/02/06 07:06:18;;;;;;;6.93;2.15;;;;;;;6.78;100.00;98079.81;6111038;19;20051;-71
2024/02/06 07:08:19;;;;;;;3.20;1.95;;;;;;;6.82;100.00;98068.91;6109901;19;20006;-71
2024/02/06 07:10:19;;;;;;;3.13;1.75;;;;;;;6.84;100.00;98066.56;6110582;19;20009;-71
2024/02/06 07:12:19;;;;;;;5.43;1.95;;;;;;;6.81;100.00;98070.84;6110289;19;19999;-71
2024/02/06 07:14:20;;;;;;;4.68;2.00;;;;;;;6.81;100.00;98064.56;6110056;19;20155;-71
2024/02/06 07:16:20;;;;;;;7.75;2.63;;;;;;;6.79;100.00;98064.13;6111646;19;20101;-71
2024/02/06 07:18:20;;;;;;;5.45;2.10;;;;;;;6.80;100.00;98065.72;6109610;19;20031;-71
2024/02/06 07:20:21;;;;;;;5.50;2.53;;;;;;;6.79;100.00;98077.88;6109324;19;20056;-71
2024/02/06 07:22:21;;;;;;;3.55;2.05;;;;;;;6.75;100.00;98084.09;6110629;19;20032;-71
2024/02/06 07:24:25;;;;;;;8.02;1.83;;;;;;;6.78;100.00;98090.81;6110065;19;20410;-71
2024/02/06 07:26:25;;;;;;;3.83;1.90;;;;;;;6.82;100.00;98086.19;6110191;19;20032;-71
2024/02/06 07:28:26;;;;;;;3.42;1.67;;;;;;;6.79;100.00;98091.63;6110129;19;20422;-71
2024/02/06 07:30:27;;;;;;;5.38;2.25;;;;;;;6.78;100.00;98093.56;6109596;19;20094;-71
2024/02/06 07:32:27;;;;;;;7.95;2.90;;;;;;;6.74;100.00;98098.19;6110060;19;20018;-71
2024/02/06 07:34:27;;;;;;;4.10;1.60;;;;;;;6.73;100.00;98097.41;6110589;19;20620;-71
2024/02/06 07:36:29;;;;;;;2.95;1.67;;;;;;;6.78;100.00;98095.50;6109935;19;20489;-71
2024/02/06 07:38:30;;;;;;;3.53;1.50;;;;;;;6.75;100.00;98097.84;6108560;19;20328;-71
2024/02/06 07:40:30;;;;;;;3.13;1.73;;;;;;;6.77;100.00;98091.97;6110121;19;20341;-71
2024/02/06 07:42:31;;;;;;;5.85;1.92;;;;;;;6.76;100.00;98104.94;6110232;19;20424;-71
2024/02/06 07:44:31;;;;;;;6.55;1.60;;;;;;;6.75;100.00;98099.78;6109748;19;20103;-71
2024/02/06 07:46:31;;;;;;;1.90;1.35;;;;;;;6.78;100.00;98098.25;6109940;19;20455;-71
2024/02/06 07:48:32;;;;;;;2.20;1.65;;;;;;;6.74;100.00;98087.22;6108176;19;20007;-71
2024/02/06 07:50:33;;;;;;;3.95;2.03;;;;;;;6.72;100.00;98098.56;6108933;19;20335;-71
2024/02/06 07:52:33;;;;;;;4.85;1.95;;;;;;;6.78;100.00;98093.56;6110613;19;20491;-71
2024/02/06 07:54:34;;;;;;;5.70;2.00;;;;;;;6.80;100.00;98095.97;6108723;19;20006;-71
2024/02/06 07:56:34;;;;;;;4.57;2.03;;;;;;;6.81;100.00;98092.06;6111020;19;20506;-71
2024/02/06 07:58:34;;;;;;;5.28;2.10;;;;;;;6.81;100.00;98095.59;6108223;19;20352;-71
2024/02/06 08:00:35;;;;;;;6.28;2.35;;;;;;;6.86;100.00;98087.03;6108927;19;20010;-71
2024/02/06 08:02:35;;;;;;;5.55;2.13;;;;;;;6.82;100.00;98080.69;6110678;19;20356;-71
2024/02/06 08:04:35;;;;;;;4.50;2.10;;;;;;;6.89;100.00;98091.03;6109236;19;20451;-71
2024/02/06 08:06:36;;;;;;;3.95;1.70;;;;;;;6.89;100.00;98075.34;6108888;19;20002;-71
2024/02/06 08:08:36;;;;;;;3.50;1.95;;;;;;;6.86;100.00;98081.53;6109712;19;20570;-71
2024/02/06 08:10:36;;;;;;;2.47;1.67;;;;;;;6.85;100.00;98073.66;6110055;19;20010;-71
2024/02/06 08:12:37;;;;;;;4.28;1.83;;;;;;;6.82;100.00;98077.94;6108511;19;20002;-71
2024/02/06 08:14:39;;;;;;;4.05;1.98;;;;;;;6.83;100.00;98082.28;6109413;19;20002;-71
2024/02/06 08:16:40;;;;;;;;;;;;;;;6.79;100.00;98080.63;6109914;19;20335;-71
2024/02/06 08:18:40;;;;;;;4.15;1.95;;;;;;;6.82;100.00;98090.91;6109033;19;20368;-71
2024/02/06 08:20:41;;;;;;;2.65;1.80;;;;;;;6.80;100.00;98082.22;6109329;19;20009;-71
2024/02/06 08:22:42;;;;;;;3.17;1.70;;;;;;;6.75;100.00;98075.84;6108552;19;20102;-71
2024/02/06 08:24:43;;;;;;;2.33;1.58;;;;;;;6.79;100.00;98069.63;6109580;19;20025;-71
2024/02/06 08:26:43;;;;;;;4.80;1.67;;;;;;;6.79;100.00;98078.69;6108361;19;20014;-71
2024/02/06 08:28:45;;;;;;;4.05;1.70;;;;;;;6.82;100.00;98072.44;6109119;19;20362;-71
2024/02/06 08:30:47;;;;;;;2.75;1.73;;;;;;;6.88;100.00;98078.47;6109187;19;20382;-71
2024/02/06 08:32:48;;;;;;;3.08;1.88;;;;;;;6.88;100.00;98072.97;6109364;19;20035;-71
2024/02/06 08:34:48;;;;;;;3.95;2.20;;;;;;;6.85;100.00;98066.22;6108318;19;20015;-71
2024/02/06 08:36:49;;;;;;;2.83;1.92;;;;;;;6.89;100.00;98067.09;6107191;19;20367;-71
2024/02/06 08:38:49;;;;;;;5.15;1.83;;;;;;;6.88;100.00;98067.47;6109410;19;20367;-71
2024/02/06 08:40:49;;;;;;;5.22;1.98;;;;;;;6.91;100.00;98059.25;6107981;19;20013;-71
2024/02/06 08:42:50;;;;;;;4.45;2.45;;;;;;;6.91;100.00;98063.97;6108503;19;20020;-71
2024/02/06 08:44:50;;;;;;;3.53;1.73;;;;;;;6.90;100.00;98060.44;6109560;19;20056;-71
2024/02/06 08:46:51;;;;;;;3.05;1.75;;;;;;;6.90;100.00;98054.94;6107439;19;20063;-71
2024/02/06 08:48:52;;;;;;;4.32;2.35;;;;;;;6.89;100.00;98056.09;6108321;19;20018;-71
2024/02/06 08:50:52;;;;;;;5.22;2.75;;;;;;;6.91;100.00;98053.75;6108399;19;20035;-71
2024/02/06 08:52:52;;;;;;;9.25;5.38;;;;;;;6.95;100.00;98042.81;6109076;19;20347;-71
2024/02/06 08:54:53;;;;;;;5.47;2.80;;;;;;;6.99;100.00;98049.19;6107863;19;20019;-71
2024/02/06 08:56:54;;;;;;;5.40;2.53;;;;;;;7.01;100.00;98035.88;6107237;19;20014;-71
2024/02/06 08:58:54;;;;;;;5.38;3.47;;;;;;;7.03;100.00;98052.78;6108582;19;20011;-72
2024/02/06 09:00:54;;;;;;;5.40;2.17;;;;;;;6.98;100.00;98047.59;6108084;19;20444;-71
2024/02/06 09:02:55;;;;;;;6.63;2.40;;;;;;;7.00;100.00;98040.56;6108715;19;20044;-71
2024/02/06 09:04:55;;;;;;;3.40;2.30;;;;;;;6.98;100.00;98026.41;6108048;19;20082;-71
2024/02/06 09:06:56;;;;;;;4.38;2.35;;;;;;;6.99;100.00;98027.97;6106485;19;20014;-71
2024/02/06 09:08:58;;;;;;;3.17;2.10;;;;;;;7.01;100.00;98030.34;6108562;19;20025;-71
2024/02/06 09:10:58;;;;;;;4.82;2.55;;;;;;;6.95;100.00;98027.13;6108786;19;20040;-71
2024/02/06 09:12:59;;;;;;;7.43;2.50;;;;;;;6.94;100.00;98030.22;6109109;19;20006;-71
2024/02/06 09:15:01;;;;;;;9.50;3.25;;;;;;;6.95;100.00;98016.13;6107699;19;20013;-71
2024/02/06 09:17:03;;;;;;;9.05;3.28;;;;;;;6.95;100.00;98029.88;6107467;19;20038;-71
2024/02/06 09:19:04;;;;;;;6.13;2.88;;;;;;;6.93;100.00;98017.63;6107187;19;20392;-71
2024/02/06 09:21:04;;;;;;;6.40;2.90;;;;;;;6.94;100.00;98022.78;6108995;19;20045;-71
2024/02/06 09:23:05;;;;;;;5.68;2.97;;;;;;;6.91;100.00;98009.75;6108387;19;20515;-71
2024/02/06 09:25:06;;;;;;;6.03;3.00;;;;;;;6.95;100.00;98002.38;6108140;19;20319;-71